Time;durP1;ratioP1;P1;durP2;ratioP2;P2;SDS_P1;SDS_P2;PMS_P1;PMS_P2;Temp;Humidity;BMP_temperature;BMP_pressure;BME280_temperature;BME280_humidity;BME280_pressure;Samples;Min_cycle;Max_cycle;Signal;HPM_P1;HPM_P2
2022/07/21 00:00:45;;;;;;;14.50;9.82;;;21.80;99.90;;;;;;5070269;28;20064;-49
2022/07/21 00:03:10;;;;;;;14.88;10.07;;;21.90;99.90;;;;;;5069840;28;20044;-46
2022/07/21 00:05:36;;;;;;;15.82;11.27;;;21.70;99.90;;;;;;5070279;28;20050;-48
2022/07/21 00:08:03;;;;;;;15.10;11.57;;;21.60;99.90;;;;;;5070264;28;20070;-48
2022/07/21 00:10:29;;;;;;;17.30;11.38;;;21.60;99.90;;;;;;5070436;28;20115;-50
2022/07/21 00:12:55;;;;;;;18.08;11.90;;;21.50;99.90;;;;;;5068891;28;20135;-49
2022/07/21 00:15:24;;;;;;;16.20;12.45;;;21.50;99.90;;;;;;5069414;28;20119;-50
2022/07/21 00:17:50;;;;;;;17.13;13.27;;;21.50;99.90;;;;;;5068524;28;20094;-49
2022/07/21 00:20:16;;;;;;;19.40;13.40;;;21.50;99.90;;;;;;5069983;28;20032;-48
2022/07/21 00:22:43;;;;;;;20.27;13.77;;;21.50;99.90;;;;;;5068370;28;20127;-48
2022/07/21 00:25:10;;;;;;;20.35;14.75;;;21.60;99.90;;;;;;5070326;28;20128;-50
2022/07/21 00:27:36;;;;;;;19.73;15.48;;;21.60;99.90;;;;;;5070128;28;20131;-48
2022/07/21 00:30:05;;;;;;;23.60;17.20;;;21.60;99.90;;;;;;5070470;28;20132;-48
2022/07/21 00:32:30;;;;;;;23.65;18.17;;;21.50;99.90;;;;;;5069619;28;20099;-48
2022/07/21 00:34:56;;;;;;;21.65;18.25;;;21.50;99.90;;;;;;5070139;28;20040;-47
2022/07/21 00:37:23;;;;;;;26.63;19.85;;;21.60;99.90;;;;;;5069144;28;20582;-51
2022/07/21 00:39:50;;;;;;;25.02;20.30;;;21.50;99.90;;;;;;5070206;28;20051;-45
2022/07/21 00:42:30;;;;;;;25.48;20.80;;;21.40;99.90;;;;;;5069566;28;20148;-49
2022/07/21 00:44:57;;;;;;;31.67;22.90;;;21.50;99.90;;;;;;5069762;28;20040;-46
2022/07/21 00:47:28;;;;;;;26.08;21.92;;;21.40;99.90;;;;;;5069422;28;20040;-48
2022/07/21 00:49:54;;;;;;;29.40;23.48;;;21.40;99.90;;;;;;5069767;28;20036;-48
2022/07/21 00:52:20;;;;;;;25.23;22.23;;;21.40;99.90;;;;;;5069749;28;20060;-49
2022/07/21 00:54:47;;;;;;;27.95;23.23;;;21.30;99.90;;;;;;5069909;28;20097;-47
2022/07/21 00:57:13;;;;;;;29.00;24.50;;;21.40;99.90;;;;;;5069680;28;20045;-47
2022/07/21 00:59:41;;;;;;;30.58;24.23;;;21.30;99.90;;;;;;5069520;28;20448;-49
2022/07/21 01:02:07;;;;;;;28.70;25.40;;;21.20;99.90;;;;;;5069938;28;20048;-48
2022/07/21 01:04:33;;;;;;;33.58;25.45;;;21.30;99.90;;;;;;5069619;28;20029;-47
2022/07/21 01:07:01;;;;;;;29.27;24.33;;;21.30;99.90;;;;;;5069901;28;20035;-48
2022/07/21 01:09:27;;;;;;;28.15;24.67;;;21.20;99.90;;;;;;5069945;28;20037;-48
2022/07/21 01:11:53;;;;;;;30.15;25.73;;;21.10;99.90;;;;;;5068138;28;20040;-49
2022/07/21 01:14:19;;;;;;;32.80;27.13;;;21.00;99.90;;;;;;5069761;28;20088;-49
2022/07/21 01:16:45;;;;;;;34.42;27.92;;;21.10;99.90;;;;;;5068979;28;20404;-49
2022/07/21 01:19:11;;;;;;;32.72;28.55;;;21.00;99.90;;;;;;5069826;28;20040;-47
2022/07/21 01:21:43;;;;;;;33.00;29.35;;;21.00;99.90;;;;;;5067240;28;20526;-47
2022/07/21 01:24:09;;;;;;;34.70;30.88;;;20.90;99.90;;;;;;5069636;28;20509;-49
2022/07/21 01:26:42;;;;;;;36.17;32.20;;;20.80;99.90;;;;;;5070201;28;20517;-47
2022/07/21 01:29:09;;;;;;;35.25;30.83;;;20.80;99.90;;;;;;5073041;28;20036;-52
2022/07/21 01:31:36;;;;;;;38.30;32.25;;;20.80;99.90;;;;;;5073285;28;20514;-50
2022/07/21 01:34:02;;;;;;;37.42;32.88;;;20.70;99.90;;;;;;5071651;28;20047;-50
2022/07/21 01:36:28;;;;;;;40.33;34.38;;;20.70;99.90;;;;;;5071665;28;20029;-49
2022/07/21 01:41:38;;;;;;;37.28;32.70;;;20.70;99.90;;;;;;5072996;28;20048;-52
2022/07/21 01:44:06;;;;;;;37.45;32.38;;;20.60;99.90;;;;;;5072776;28;20047;-51
2022/07/21 01:46:35;;;;;;;40.53;33.30;;;20.60;99.90;;;;;;5072610;28;20048;-49
2022/07/21 01:49:00;;;;;;;39.72;33.80;;;20.70;99.90;;;;;;5072825;28;20488;-49
2022/07/21 01:51:26;;;;;;;39.75;32.45;;;20.70;99.90;;;;;;5072583;28;20047;-49
2022/07/21 01:53:53;;;;;;;39.22;34.85;;;20.60;99.90;;;;;;5072373;28;20470;-50
2022/07/21 01:56:20;;;;;;;37.53;32.08;;;20.60;99.90;;;;;;5072811;28;20086;-49
2022/07/21 01:58:47;;;;;;;42.50;36.33;;;20.60;99.90;;;;;;5072504;28;20036;-48
2022/07/21 02:01:14;;;;;;;41.38;34.15;;;20.70;99.90;;;;;;5071445;28;20480;-50
2022/07/21 02:03:40;;;;;;;38.35;32.47;;;20.60;99.90;;;;;;5072609;28;20491;-50
2022/07/21 02:06:07;;;;;;;37.15;32.90;;;20.60;99.90;;;;;;5069937;28;20072;-49
2022/07/21 02:08:33;;;;;;;39.75;33.42;;;20.80;99.90;;;;;;5072437;28;20052;-47
2022/07/21 02:10:59;;;;;;;39.67;33.00;;;20.70;99.90;;;;;;5071978;28;20032;-50
2022/07/21 02:13:24;;;;;;;41.50;34.63;;;20.60;99.90;;;;;;5072500;28;20032;-49
2022/07/21 02:15:51;;;;;;;36.90;32.90;;;20.70;99.90;;;;;;5072019;28;20036;-47
2022/07/21 02:18:17;;;;;;;43.72;37.05;;;20.60;99.90;;;;;;5071541;28;20040;-50
2022/07/21 02:20:44;;;;;;;43.83;36.03;;;20.70;99.90;;;;;;5072251;28;20386;-50
2022/07/21 02:23:11;;;;;;;39.30;33.70;;;20.60;99.90;;;;;;5072318;28;20043;-47
2022/07/21 02:25:37;;;;;;;38.78;34.28;;;20.60;99.90;;;;;;5072098;28;20070;-49
2022/07/21 02:28:02;;;;;;;39.42;33.92;;;20.60;99.90;;;;;;5072101;28;20044;-49
2022/07/21 02:30:28;;;;;;;39.17;33.47;;;20.60;99.90;;;;;;5071922;28;20392;-47
2022/07/21 02:32:54;;;;;;;38.05;32.90;;;20.60;99.90;;;;;;5072151;28;20056;-48
2022/07/21 02:35:20;;;;;;;39.22;34.70;;;20.50;99.90;;;;;;5071691;28;20040;-51
2022/07/21 02:37:45;;;;;;;38.90;31.98;;;20.50;99.90;;;;;;5071793;28;20066;-47
2022/07/21 02:40:11;;;;;;;36.33;32.25;;;20.60;99.90;;;;;;5071353;28;20040;-48
2022/07/21 02:42:37;;;;;;;35.97;30.55;;;20.50;99.90;;;;;;5071851;28;20052;-50
2022/07/21 02:45:08;;;;;;;36.25;30.77;;;20.50;99.90;;;;;;5071880;28;20068;-50
2022/07/21 02:47:51;;;;;;;33.58;29.60;;;20.20;99.90;;;;;;5070132;28;20044;-48
2022/07/21 02:50:17;;;;;;;34.30;29.93;;;20.20;99.90;;;;;;5071764;28;20388;-52
2022/07/21 02:52:43;;;;;;;35.08;30.27;;;20.20;99.90;;;;;;5071797;28;20357;-48
2022/07/21 02:55:09;;;;;;;33.65;29.42;;;20.20;99.90;;;;;;5071583;28;20056;-50
2022/07/21 02:57:35;;;;;;;36.63;30.17;;;20.20;99.90;;;;;;5069975;28;20049;-50
2022/07/21 03:00:01;;;;;;;35.03;29.85;;;20.10;99.90;;;;;;5071234;28;20052;-50
2022/07/21 03:02:27;;;;;;;35.55;29.30;;;20.10;99.90;;;;;;5071593;28;20040;-49
2022/07/21 03:04:52;;;;;;;34.05;29.45;;;20.20;99.90;;;;;;5071314;28;20496;-50
2022/07/21 03:07:18;;;;;;;34.80;29.13;;;20.00;99.90;;;;;;5071812;28;20457;-49
2022/07/21 03:09:44;;;;;;;32.10;26.88;;;20.20;99.90;;;;;;5070019;28;20045;-49
2022/07/21 03:12:09;;;;;;;32.45;28.90;;;20.00;99.90;;;;;;5070117;28;20040;-50
2022/07/21 03:14:35;;;;;;;32.13;25.40;;;20.10;99.90;;;;;;5071321;28;20119;-48
2022/07/21 03:17:02;;;;;;;29.85;24.67;;;20.10;99.90;;;;;;5070254;28;20528;-48
2022/07/21 03:19:28;;;;;;;28.00;23.90;;;19.90;99.90;;;;;;5070823;28;20072;-50
2022/07/21 03:21:54;;;;;;;27.02;23.95;;;20.00;99.90;;;;;;5071215;28;20376;-50
2022/07/21 03:24:19;;;;;;;28.33;23.58;;;20.00;99.90;;;;;;5071196;28;20036;-49
2022/07/21 03:26:45;;;;;;;28.13;23.25;;;19.90;99.90;;;;;;5071085;28;20438;-49
2022/07/21 03:29:11;;;;;;;27.67;24.02;;;20.00;99.90;;;;;;5070630;28;20507;-51
2022/07/21 03:31:37;;;;;;;26.90;23.52;;;19.90;99.90;;;;;;5070504;28;20041;-50
2022/07/21 03:34:02;;;;;;;27.00;23.27;;;19.90;99.90;;;;;;5071034;28;20039;-51
2022/07/21 03:36:28;;;;;;;26.23;22.40;;;19.90;99.90;;;;;;5070769;28;20056;-51
2022/07/21 03:38:54;;;;;;;27.05;23.67;;;19.90;99.90;;;;;;5069409;28;20045;-51
2022/07/21 03:41:20;;;;;;;26.40;23.10;;;20.00;99.90;;;;;;5070761;28;20070;-51
2022/07/21 03:43:45;;;;;;;28.13;23.50;;;19.90;99.90;;;;;;5070756;28;20047;-52
2022/07/21 03:46:11;;;;;;;28.58;23.60;;;19.90;99.90;;;;;;5070541;28;20059;-48
2022/07/21 03:48:37;;;;;;;25.38;22.65;;;20.00;99.90;;;;;;5068413;28;20036;-48
2022/07/21 03:51:02;;;;;;;26.45;22.25;;;19.90;99.90;;;;;;5070248;28;20043;-48
2022/07/21 03:53:28;;;;;;;29.35;24.23;;;19.90;99.90;;;;;;5070465;28;20483;-48
2022/07/21 03:55:54;;;;;;;30.02;24.88;;;19.80;99.90;;;;;;5070287;28;20039;-49
2022/07/21 03:58:19;;;;;;;30.58;25.80;;;19.90;99.90;;;;;;5070501;28;20043;-52
2022/07/21 04:00:45;;;;;;;32.15;26.25;;;19.80;99.90;;;;;;5069567;28;20633;-52
2022/07/21 04:03:11;;;;;;;30.15;25.75;;;19.70;99.90;;;;;;5070044;28;20055;-50
2022/07/21 04:05:38;;;;;;;31.70;27.30;;;19.70;99.90;;;;;;5070005;28;20051;-50
2022/07/21 04:08:05;;;;;;;30.98;27.05;;;19.70;99.90;;;;;;5069614;28;20160;-48
2022/07/21 04:10:33;;;;;;;33.03;27.25;;;19.70;99.90;;;;;;5070409;28;20036;-50
2022/07/21 04:13:02;;;;;;;33.80;28.40;;;19.80;99.90;;;;;;5068569;28;20048;-50
2022/07/21 04:15:28;;;;;;;31.48;28.08;;;19.70;99.90;;;;;;5068998;28;20036;-52
2022/07/21 04:17:54;;;;;;;33.63;29.20;;;19.70;99.90;;;;;;5069396;28;20043;-51
2022/07/21 04:20:20;;;;;;;32.63;29.08;;;19.90;99.90;;;;;;5068797;28;20037;-47
2022/07/21 04:22:47;;;;;;;34.25;28.48;;;19.80;99.90;;;;;;5069902;28;20032;-50
2022/07/21 04:25:14;;;;;;;32.35;27.73;;;19.80;99.90;;;;;;5070160;28;20480;-48
2022/07/21 04:27:40;;;;;;;31.33;27.67;;;19.80;99.90;;;;;;5069937;28;20518;-49
2022/07/21 04:30:08;;;;;;;33.80;28.52;;;19.70;99.90;;;;;;5069991;28;20045;-49
2022/07/21 04:32:34;;;;;;;32.30;28.80;;;19.80;99.90;;;;;;5069943;28;20037;-50
2022/07/21 04:35:00;;;;;;;32.42;28.75;;;19.70;99.90;;;;;;5069799;28;20545;-52
2022/07/21 04:37:26;;;;;;;31.63;27.08;;;19.70;99.90;;;;;;5069883;28;20068;-50
2022/07/21 04:39:52;;;;;;;30.58;26.55;;;19.80;99.90;;;;;;5070103;28;20047;-50
2022/07/21 04:42:18;;;;;;;30.02;26.02;;;19.70;99.90;;;;;;5069639;28;20128;-50
2022/07/21 04:44:43;;;;;;;27.80;24.40;;;19.80;99.90;;;;;;5069898;28;20040;-50
2022/07/21 04:47:09;;;;;;;29.35;24.05;;;19.70;99.90;;;;;;5069123;28;20032;-52
2022/07/21 04:49:35;;;;;;;28.55;24.10;;;19.60;99.90;;;;;;5069596;28;20040;-50
2022/07/21 04:52:01;;;;;;;29.80;24.30;;;19.70;99.90;;;;;;5069502;28;20045;-49
2022/07/21 04:54:27;;;;;;;27.55;23.67;;;19.60;99.90;;;;;;5069855;28;20040;-50
2022/07/21 04:56:52;;;;;;;26.75;23.77;;;19.70;99.90;;;;;;5069937;28;20402;-49
2022/07/21 04:59:18;;;;;;;26.52;23.35;;;19.70;99.90;;;;;;5069696;28;20423;-51
2022/07/21 05:01:44;;;;;;;28.67;24.15;;;19.60;99.90;;;;;;5070006;28;20041;-51
2022/07/21 05:04:09;;;;;;;26.48;23.05;;;19.70;99.90;;;;;;5073826;28;20040;-51
2022/07/21 05:06:35;;;;;;;27.98;23.35;;;19.70;99.90;;;;;;5073932;28;20373;-50
2022/07/21 05:09:01;;;;;;;23.88;21.15;;;19.80;99.90;;;;;;5072166;28;20044;-50
2022/07/21 05:11:26;;;;;;;24.98;21.77;;;19.70;99.90;;;;;;5073510;28;20033;-50
2022/07/21 05:13:52;;;;;;;23.33;20.85;;;19.80;99.90;;;;;;5073614;28;20055;-50
2022/07/21 05:16:18;;;;;;;24.52;19.95;;;19.80;99.90;;;;;;5073491;28;20584;-51
2022/07/21 05:18:44;;;;;;;23.42;19.58;;;19.80;99.90;;;;;;5071892;28;20032;-50
2022/07/21 05:21:09;;;;;;;23.73;19.80;;;19.70;99.90;;;;;;5073080;28;20036;-48
2022/07/21 05:23:35;;;;;;;22.45;18.92;;;19.90;99.90;;;;;;5073437;28;20052;-53
2022/07/21 05:26:01;;;;;;;20.73;18.45;;;19.70;99.90;;;;;;5073230;28;20036;-52
2022/07/21 05:28:30;;;;;;;22.73;19.92;;;19.70;99.90;;;;;;5071757;28;20502;-51
2022/07/21 05:30:55;;;;;;;21.85;19.48;;;19.70;99.90;;;;;;5073113;28;20790;-52
2022/07/21 05:33:21;;;;;;;22.30;19.27;;;19.70;99.90;;;;;;5072618;28;20044;-50
2022/07/21 05:35:47;;;;;;;26.35;19.95;;;19.80;99.90;;;;;;5073046;28;20033;-50
2022/07/21 05:38:13;;;;;;;22.73;19.73;;;19.80;99.90;;;;;;5071978;28;20143;-50
2022/07/21 05:40:39;;;;;;;25.20;20.08;;;19.90;99.90;;;;;;5071626;28;20438;-51
2022/07/21 05:43:05;;;;;;;24.08;20.65;;;19.90;99.90;;;;;;5073043;28;20128;-50
2022/07/21 05:45:31;;;;;;;22.33;20.02;;;19.80;99.90;;;;;;5072585;28;20044;-49
2022/07/21 05:47:57;;;;;;;26.83;21.00;;;19.90;99.90;;;;;;5072301;28;20036;-52
2022/07/21 05:50:22;;;;;;;23.23;19.98;;;19.90;99.90;;;;;;5071225;28;20369;-52
2022/07/21 05:52:48;;;;;;;26.38;21.60;;;19.70;99.90;;;;;;5071213;28;20149;-49
2022/07/21 05:55:14;;;;;;;24.13;20.52;;;19.80;99.90;;;;;;5072240;28;20040;-51
2022/07/21 05:57:39;;;;;;;28.50;22.48;;;19.70;99.90;;;;;;5072784;28;20044;-49
2022/07/21 06:00:06;;;;;;;24.42;20.35;;;19.70;99.90;;;;;;5072337;28;20054;-50
2022/07/21 06:02:32;;;;;;;26.05;21.33;;;19.60;99.90;;;;;;5072764;28;20040;-52
2022/07/21 06:04:58;;;;;;;26.73;22.17;;;19.60;99.90;;;;;;5072578;28;20036;-50
2022/07/21 06:07:24;;;;;;;27.75;22.35;;;19.70;99.90;;;;;;5072461;28;20059;-51
2022/07/21 06:09:50;;;;;;;27.15;22.00;;;19.50;99.90;;;;;;5072153;28;20075;-50
2022/07/21 06:12:15;;;;;;;24.98;21.10;;;19.60;99.90;;;;;;5072014;28;20044;-52
2022/07/21 06:14:41;;;;;;;26.33;22.85;;;19.70;99.90;;;;;;5071139;28;20036;-52
2022/07/21 06:17:07;;;;;;;27.52;22.77;;;19.70;99.90;;;;;;5071737;28;20032;-50
2022/07/21 06:19:33;;;;;;;26.77;23.38;;;19.70;99.90;;;;;;5072437;28;20476;-52
2022/07/21 06:21:59;;;;;;;26.85;23.00;;;19.80;99.90;;;;;;5072339;28;20557;-52
2022/07/21 06:24:26;;;;;;;27.25;23.35;;;19.70;99.90;;;;;;5072291;28;20201;-52
2022/07/21 06:26:55;;;;;;;26.88;23.77;;;19.70;99.90;;;;;;5071991;28;20055;-49
2022/07/21 06:29:24;;;;;;;30.23;24.52;;;19.80;99.90;;;;;;5071967;28;20085;-49
2022/07/21 06:31:50;;;;;;;28.48;24.02;;;19.80;99.90;;;;;;5071654;28;20044;-48
2022/07/21 06:34:16;;;;;;;30.73;24.80;;;19.90;99.90;;;;;;5072028;28;20039;-52
2022/07/21 06:36:42;;;;;;;30.58;25.30;;;20.00;99.90;;;;;;5071787;28;20086;-50
2022/07/21 06:39:08;;;;;;;30.80;25.75;;;20.00;99.90;;;;;;5071770;28;20044;-54
2022/07/21 06:41:33;;;;;;;33.08;26.50;;;20.00;99.90;;;;;;5070599;28;20040;-51
2022/07/21 06:44:01;;;;;;;33.95;26.55;;;20.00;99.90;;;;;;5071713;28;20087;-50
2022/07/21 06:46:27;;;;;;;33.72;26.48;;;20.00;99.90;;;;;;5071757;28;20047;-48
2022/07/21 06:48:53;;;;;;;33.40;25.90;;;20.00;99.90;;;;;;5069950;28;20395;-53
2022/07/21 06:51:18;;;;;;;33.40;26.90;;;20.00;99.90;;;;;;5071233;28;20476;-51
2022/07/21 06:53:44;;;;;;;37.28;30.08;;;20.00;99.90;;;;;;5071555;28;20040;-52
2022/07/21 06:56:10;;;;;;;34.15;27.48;;;20.10;99.90;;;;;;5071277;28;20072;-50
2022/07/21 06:58:35;;;;;;;39.00;29.75;;;20.10;99.90;;;;;;5071310;28;20040;-53
2022/07/21 07:01:01;;;;;;;37.88;29.63;;;20.20;99.90;;;;;;5069620;28;20059;-47
2022/07/21 07:03:27;;;;;;;37.25;28.90;;;20.10;99.90;;;;;;5071352;28;20049;-52
2022/07/21 07:05:53;;;;;;;38.85;30.05;;;20.10;99.90;;;;;;5071199;28;20039;-49
2022/07/21 07:08:18;;;;;;;44.13;32.72;;;20.10;99.90;;;;;;5071074;28;20472;-49
2022/07/21 07:10:46;;;;;;;41.72;32.60;;;20.20;99.90;;;;;;5071298;28;20120;-51
2022/07/21 07:13:13;;;;;;;41.30;31.90;;;20.10;99.90;;;;;;5071165;28;20492;-51
2022/07/21 07:15:39;;;;;;;42.75;31.90;;;20.10;99.90;;;;;;5070997;28;20105;-50
2022/07/21 07:18:04;;;;;;;39.90;30.88;;;20.20;99.90;;;;;;5070142;28;20071;-50
2022/07/21 07:20:30;;;;;;;39.50;30.75;;;20.20;99.90;;;;;;5070521;28;20561;-49
2022/07/21 07:22:56;;;;;;;38.28;30.33;;;20.30;99.90;;;;;;5070594;28;20040;-49
2022/07/21 07:25:22;;;;;;;41.83;30.33;;;20.30;99.90;;;;;;5069348;28;20128;-51
2022/07/21 07:27:49;;;;;;;38.40;30.17;;;20.50;99.90;;;;;;5070340;28;20041;-50
2022/07/21 07:30:16;;;;;;;37.38;29.38;;;20.40;99.90;;;;;;5070846;28;20076;-51
2022/07/21 07:32:42;;;;;;;40.97;31.98;;;20.50;99.90;;;;;;5069171;28;20043;-50
2022/07/21 07:35:09;;;;;;;38.80;31.10;;;20.70;99.90;;;;;;5070960;28;20032;-48
2022/07/21 07:37:37;;;;;;;40.60;30.60;;;20.70;99.90;;;;;;5069306;28;20064;-48
2022/07/21 07:40:05;;;;;;;39.00;30.23;;;20.70;99.90;;;;;;5070833;28;20039;-49
2022/07/21 07:42:31;;;;;;;40.45;30.92;;;20.60;99.90;;;;;;5070550;28;20076;-49
2022/07/21 07:44:57;;;;;;;42.90;31.60;;;20.70;99.90;;;;;;5070886;28;20048;-48
2022/07/21 07:47:23;;;;;;;48.22;35.33;;;20.70;99.90;;;;;;5069721;28;20479;-48
2022/07/21 07:49:50;;;;;;;51.58;37.53;;;20.80;99.90;;;;;;5070521;28;20048;-51
2022/07/21 07:52:16;;;;;;;49.53;37.20;;;20.80;99.90;;;;;;5070158;28;20112;-50
2022/07/21 07:54:42;;;;;;;49.47;36.50;;;20.70;99.90;;;;;;5070587;28;20111;-49
2022/07/21 07:57:07;;;;;;;50.17;36.40;;;20.90;99.90;;;;;;5070026;28;20484;-52
2022/07/21 07:59:33;;;;;;;46.03;35.75;;;20.80;99.90;;;;;;5068798;28;20044;-50
2022/07/21 08:01:59;;;;;;;51.15;36.45;;;20.90;99.90;;;;;;5070374;28;20044;-51
2022/07/21 08:04:25;;;;;;;47.47;36.13;;;21.00;99.90;;;;;;5069061;28;20053;-47
2022/07/21 08:06:51;;;;;;;46.50;35.17;;;21.20;99.90;;;;;;5069992;28;20091;-50
2022/07/21 08:09:18;;;;;;;44.45;33.55;;;21.40;99.90;;;;;;5068285;28;20068;-49
2022/07/21 08:11:46;;;;;;;45.97;35.30;;;21.60;99.90;;;;;;5068883;28;20467;-53
2022/07/21 08:14:13;;;;;;;50.50;35.33;;;21.50;99.90;;;;;;5070324;28;20032;-51
2022/07/21 08:16:39;;;;;;;43.80;34.92;;;21.50;99.90;;;;;;5070037;28;20439;-54
2022/07/21 08:19:05;;;;;;;46.25;32.05;;;21.60;99.90;;;;;;5069831;28;20032;-53
2022/07/21 08:21:30;;;;;;;43.72;34.03;;;21.40;99.90;;;;;;5070044;28;20063;-49
2022/07/21 08:23:57;;;;;;;45.33;33.88;;;21.50;99.90;;;;;;5069988;28;20040;-54
2022/07/21 08:26:24;;;;;;;44.55;32.28;;;21.30;99.90;;;;;;5068875;28;20459;-48
2022/07/21 08:28:51;;;;;;;40.97;30.98;;;21.30;99.90;;;;;;5069960;28;20117;-52
2022/07/21 08:31:16;;;;;;;44.13;31.42;;;21.30;99.90;;;;;;5069668;28;20080;-52
2022/07/21 08:33:42;;;;;;;40.35;30.33;;;21.50;99.90;;;;;;5070078;28;20495;-50
2022/07/21 08:36:08;;;;;;;44.92;31.45;;;21.50;99.90;;;;;;5069146;28;20464;-52
2022/07/21 08:38:33;;;;;;;37.80;28.58;;;21.80;99.90;;;;;;5069866;28;20043;-51
2022/07/21 08:40:59;;;;;;;35.90;27.73;;;22.00;99.90;;;;;;5069785;28;20124;-51
2022/07/21 08:43:25;;;;;;;37.53;29.40;;;22.30;99.90;;;;;;5069795;28;20040;-53
2022/07/21 08:45:52;;;;;;;40.13;29.75;;;22.30;99.90;;;;;;5068435;28;20088;-54
2022/07/21 08:48:24;;;;;;;40.33;29.40;;;22.40;99.90;;;;;;5069229;28;20044;-53
2022/07/21 08:50:50;;;;;;;36.30;28.88;;;22.40;99.90;;;;;;5068139;28;20044;-50
2022/07/21 08:53:16;;;;;;;38.60;28.88;;;22.50;99.90;;;;;;5069542;28;20055;-53
2022/07/21 08:55:41;;;;;;;38.40;27.70;;;22.80;99.90;;;;;;5069050;28;20036;-52
2022/07/21 08:58:09;;;;;;;34.05;27.75;;;22.90;99.90;;;;;;5069706;28;20380;-52
2022/07/21 09:00:36;;;;;;;33.92;27.10;;;23.00;99.90;;;;;;5069067;28;20087;-51
2022/07/21 09:03:21;;;;;;;32.30;25.15;;;23.10;99.90;;;;;;5069891;28;20080;-51
2022/07/21 09:06:04;;;;;;;34.22;26.92;;;23.10;99.90;;;;;;5069611;28;20133;-52
2022/07/21 09:08:50;;;;;;;33.97;25.30;;;23.10;99.90;;;;;;5069348;28;20036;-53
2022/07/21 09:11:20;;;;;;;30.42;23.35;;;23.00;99.90;;;;;;5069517;28;20045;-54
2022/07/21 09:14:08;;;;;;;32.03;24.63;;;22.80;99.90;;;;;;5069952;28;20102;-54
2022/07/21 09:16:38;;;;;;;33.60;24.80;;;22.80;99.90;;;;;;5069798;28;20044;-51
2022/07/21 09:19:05;;;;;;;29.65;21.83;;;22.80;99.90;;;;;;5069285;28;20059;-51
2022/07/21 09:21:32;;;;;;;27.38;21.85;;;22.80;99.90;;;;;;5069678;28;20051;-51
2022/07/21 09:24:16;;;;;;;27.00;20.73;;;22.90;99.90;;;;;;5069624;28;20090;-55
2022/07/21 09:26:59;;;;;;;28.67;21.73;;;22.80;99.90;;;;;;5067738;28;20106;-53
2022/07/21 09:29:25;;;;;;;28.13;23.08;;;22.60;99.90;;;;;;5069701;28;20105;-51
2022/07/21 09:31:51;;;;;;;30.95;25.17;;;22.60;99.90;;;;;;5068013;28;20399;-52
2022/07/21 09:34:17;;;;;;;33.15;25.17;;;22.60;99.90;;;;;;5069419;28;20079;-53
2022/07/21 09:36:57;;;;;;;32.85;27.33;;;22.60;99.90;;;;;;5067939;28;20041;-50
2022/07/21 09:39:45;;;;;;;34.50;27.38;;;22.60;99.90;;;;;;5068383;28;20043;-51
2022/07/21 09:42:21;;;;;;;36.60;29.48;;;22.60;99.90;;;;;;5069379;28;20492;-52
2022/07/21 09:44:49;;;;;;;36.17;29.83;;;22.60;99.90;;;;;;5069247;28;20048;-48
2022/07/21 09:47:17;;;;;;;39.80;31.88;;;22.50;99.90;;;;;;5069207;28;20040;-51
2022/07/21 09:49:43;;;;;;;36.35;31.35;;;22.50;99.90;;;;;;5071471;28;20052;-52
2022/07/21 09:52:30;;;;;;;42.00;34.45;;;22.50;99.90;;;;;;5072849;28;20051;-52
2022/07/21 09:55:02;;;;;;;38.63;32.30;;;22.50;99.90;;;;;;5072719;28;20131;-48
2022/07/21 09:57:28;;;;;;;35.80;30.67;;;22.40;99.90;;;;;;5072620;28;20033;-51
2022/07/21 09:59:54;;;;;;;36.95;32.15;;;22.30;99.90;;;;;;5072164;28;20515;-52
2022/07/21 10:02:21;;;;;;;39.95;33.97;;;22.30;99.90;;;;;;5072443;28;20074;-49
2022/07/21 10:04:59;;;;;;;35.65;30.92;;;22.30;99.90;;;;;;5070760;28;20040;-52
2022/07/21 10:07:28;;;;;;;34.80;30.92;;;22.20;99.90;;;;;;5072624;28;20506;-51
2022/07/21 10:09:56;;;;;;;37.50;30.38;;;22.10;99.90;;;;;;5070915;28;20036;-51
2022/07/21 10:12:23;;;;;;;37.00;28.35;;;22.00;99.90;;;;;;5072290;28;20036;-53
2022/07/21 10:14:49;;;;;;;30.75;26.92;;;22.10;99.90;;;;;;5071960;28;20033;-50
2022/07/21 10:17:16;;;;;;;34.70;27.38;;;22.10;99.90;;;;;;5070335;28;20170;-51
2022/07/21 10:20:08;;;;;;;32.75;26.77;;;22.20;99.90;;;;;;5072294;28;20033;-53
2022/07/21 10:22:51;;;;;;;34.85;27.15;;;22.40;99.90;;;;;;5072387;28;20044;-53
2022/07/21 10:25:18;;;;;;;32.35;26.80;;;22.40;99.90;;;;;;5072332;28;20058;-51
2022/07/21 10:28:13;;;;;;;33.42;27.45;;;22.40;99.90;;;;;;5071787;28;20051;-50
2022/07/21 10:30:44;;;;;;;35.13;27.58;;;22.30;99.90;;;;;;5071997;28;20054;-50
2022/07/21 10:33:12;;;;;;;35.25;27.73;;;22.20;99.90;;;;;;5071845;28;20464;-51
2022/07/21 10:35:50;;;;;;;31.30;24.38;;;22.10;99.90;;;;;;5071664;28;20431;-51
2022/07/21 10:38:27;;;;;;;33.55;24.95;;;22.00;99.90;;;;;;5072216;28;20556;-54
2022/07/21 10:40:53;;;;;;;30.70;24.30;;;22.10;99.90;;;;;;5071585;28;20132;-51
2022/07/21 10:43:24;;;;;;;30.35;24.05;;;22.20;99.90;;;;;;5072026;28;20147;-52
2022/07/21 10:45:50;;;;;;;31.65;22.20;;;22.30;99.90;;;;;;5070223;28;20445;-49
2022/07/21 10:48:41;;;;;;;27.40;21.10;;;22.30;99.90;;;;;;5071325;28;20036;-48
2022/07/21 10:51:14;;;;;;;27.55;21.50;;;22.30;99.90;;;;;;5071761;28;20044;-51
2022/07/21 10:53:41;;;;;;;23.88;20.88;;;22.40;99.90;;;;;;5071857;28;20055;-53
2022/07/21 10:56:08;;;;;;;27.25;21.63;;;22.40;99.90;;;;;;5071436;28;20541;-50
2022/07/21 10:58:38;;;;;;;26.52;21.35;;;22.20;99.90;;;;;;5071392;28;20075;-50
2022/07/21 11:01:15;;;;;;;28.33;22.70;;;22.10;99.90;;;;;;5070489;28;20044;-52
2022/07/21 11:03:43;;;;;;;25.77;21.52;;;22.30;99.90;;;;;;5071587;28;20037;-52
2022/07/21 11:06:25;;;;;;;27.83;21.88;;;22.50;99.90;;;;;;5070080;28;20037;-50
2022/07/21 11:09:02;;;;;;;24.48;19.25;;;22.50;99.90;;;;;;5071134;28;20040;-49
2022/07/21 11:11:30;;;;;;;22.25;18.20;;;22.50;99.90;;;;;;5071318;28;20090;-51
2022/07/21 11:14:04;;;;;;;21.08;15.93;;;22.50;99.90;;;;;;5069925;28;20032;-51
2022/07/21 11:16:42;;;;;;;19.27;15.60;;;22.30;99.90;;;;;;5071236;28;20058;-50
2022/07/21 11:19:26;;;;;;;18.27;15.25;;;22.30;99.90;;;;;;5070493;28;20037;-52
2022/07/21 11:21:52;;;;;;;19.13;15.88;;;22.20;99.90;;;;;;5071418;28;20040;-51
2022/07/21 11:24:23;;;;;;;21.40;16.20;;;22.10;99.90;;;;;;5070851;28;20036;-48
2022/07/21 11:27:02;;;;;;;16.33;13.88;;;21.90;99.90;;;;;;5070596;28;20044;-49
2022/07/21 11:29:29;;;;;;;9.68;8.60;;;21.90;99.90;;;;;;5071086;28;20063;-49
2022/07/21 11:31:56;;;;;;;9.77;7.72;;;21.70;99.90;;;;;;5070615;28;20036;-50
2022/07/21 11:34:23;;;;;;;10.75;8.43;;;21.50;99.90;;;;;;5070958;28;20032;-53
2022/07/21 11:36:58;;;;;;;9.68;8.02;;;21.30;99.90;;;;;;5070702;28;20408;-48
2022/07/21 11:39:24;;;;;;;12.57;9.18;;;21.40;99.90;;;;;;5070712;28;20032;-50
2022/07/21 11:41:51;;;;;;;14.15;11.57;;;21.20;99.90;;;;;;5070733;28;20040;-51
2022/07/21 11:44:24;;;;;;;16.65;11.55;;;21.10;99.90;;;;;;5070976;28;20048;-47
2022/07/21 11:46:54;;;;;;;15.30;12.90;;;21.00;99.90;;;;;;5070796;28;20035;-50
2022/07/21 11:49:20;;;;;;;19.13;14.05;;;20.90;99.90;;;;;;5070065;28;20032;-47
2022/07/21 11:51:50;;;;;;;19.33;15.77;;;20.80;99.90;;;;;;5070712;28;20063;-53
2022/07/21 11:54:25;;;;;;;20.15;16.20;;;21.10;99.90;;;;;;5070940;28;20170;-51
2022/07/21 11:56:52;;;;;;;20.73;17.10;;;21.20;99.90;;;;;;5069003;28;20048;-52
2022/07/21 11:59:18;;;;;;;19.83;16.55;;;21.10;99.90;;;;;;5070534;28;20174;-50
2022/07/21 12:02:04;;;;;;;19.92;16.50;;;21.20;99.90;;;;;;5069869;28;20044;-50
2022/07/21 12:04:31;;;;;;;17.67;15.25;;;21.10;99.90;;;;;;5070543;28;20044;-51
2022/07/21 12:06:58;;;;;;;21.35;17.48;;;20.90;99.90;;;;;;5070489;28;20040;-51
2022/07/21 12:09:24;;;;;;;22.00;16.58;;;21.10;99.90;;;;;;5070302;28;20087;-50
2022/07/21 12:11:50;;;;;;;21.90;15.20;;;20.80;99.90;;;;;;5070190;28;20175;-52
2022/07/21 12:14:16;;;;;;;19.98;14.13;;;20.90;99.90;;;;;;5070261;28;20071;-48
2022/07/21 12:16:53;;;;;;;15.20;10.32;;;20.60;99.90;;;;;;5068752;28;20036;-50
2022/07/21 12:19:20;;;;;;;8.75;5.97;;;20.40;99.90;;;;;;5069862;28;20040;-51
2022/07/21 12:21:46;;;;;;;6.60;4.43;;;20.20;99.90;;;;;;5068510;28;20048;-51
2022/07/21 12:24:12;;;;;;;5.88;3.97;;;20.40;99.90;;;;;;5070311;28;20440;-52
2022/07/21 12:26:39;;;;;;;5.20;3.67;;;20.30;99.90;;;;;;5070159;28;20086;-49
2022/07/21 12:29:04;;;;;;;4.90;3.58;;;20.30;99.90;;;;;;5070354;28;20046;-51
2022/07/21 12:31:34;;;;;;;6.55;4.00;;;20.40;99.90;;;;;;5070094;28;20569;-52
2022/07/21 12:34:12;;;;;;;9.75;4.68;;;20.60;99.90;;;;;;5069645;28;20097;-49